Time;durP1;ratioP1;P1;durP2;ratioP2;P2;SDS_P1;SDS_P2;PMS_P1;PMS_P2;Temp;Humidity;BMP_temperature;BMP_pressure;BME280_temperature;BME280_humidity;BME280_pressure;Samples;Min_cycle;Max_cycle;Signal;HPM_P1;HPM_P2
2024/01/22 00:00:44;;;;;;;8.60;2.05;;;11.30;99.90;;;;;;5036616;28;20038;-61
2024/01/22 00:03:12;;;;;;;7.40;1.50;;;11.40;99.90;;;;;;5036079;28;20045;-62
2024/01/22 00:05:39;;;;;;;8.27;1.95;;;11.40;99.90;;;;;;5035929;28;20050;-62
2024/01/22 00:08:06;;;;;;;10.95;2.05;;;11.40;99.90;;;;;;5035881;28;20123;-62
2024/01/22 00:10:33;;;;;;;8.63;2.13;;;11.40;99.90;;;;;;5035788;28;20049;-63
2024/01/22 00:13:00;;;;;;;10.05;2.15;;;11.40;99.90;;;;;;5033065;28;20088;-62
2024/01/22 00:15:27;;;;;;;11.27;2.70;;;11.40;99.90;;;;;;5035750;28;20037;-70
2024/01/22 00:17:54;;;;;;;10.23;1.98;;;11.40;99.90;;;;;;5035843;28;20051;-62
2024/01/22 00:20:22;;;;;;;11.80;2.22;;;11.40;99.90;;;;;;5034458;28;20258;-62
2024/01/22 00:22:49;;;;;;;9.75;2.25;;;11.40;99.90;;;;;;5035890;28;20497;-66
2024/01/22 00:25:16;;;;;;;10.23;2.47;;;11.40;99.90;;;;;;5034410;28;20050;-67
2024/01/22 00:27:43;;;;;;;16.13;2.55;;;11.40;99.90;;;;;;5035992;28;20103;-66
2024/01/22 00:30:10;;;;;;;14.32;2.50;;;11.40;99.90;;;;;;5035834;28;20045;-66
2024/01/22 00:32:37;;;;;;;10.93;2.17;;;11.40;99.90;;;;;;5035277;28;20037;-68
2024/01/22 00:35:04;;;;;;;6.60;1.98;;;11.40;99.90;;;;;;5035615;28;20133;-67
2024/01/22 00:37:31;;;;;;;11.40;1.90;;;11.40;99.90;;;;;;5035511;28;20437;-63
2024/01/22 00:39:58;;;;;;;8.82;2.13;;;11.40;99.90;;;;;;5034265;28;20042;-62
2024/01/22 00:42:25;;;;;;;10.85;1.80;;;11.40;99.90;;;;;;5035049;28;20052;-62
2024/01/22 00:44:51;;;;;;;12.60;2.25;;;11.40;99.90;;;;;;5033727;28;20039;-62
2024/01/22 00:47:18;;;;;;;11.82;2.42;;;11.40;99.90;;;;;;5034318;28;20037;-63
2024/01/22 00:49:45;;;;;;;10.95;2.92;;;11.40;99.90;;;;;;5035008;28;20048;-62
2024/01/22 00:52:12;;;;;;;8.68;1.60;;;11.40;99.90;;;;;;5034875;28;20502;-70
2024/01/22 00:54:39;;;;;;;10.52;1.60;;;11.40;99.90;;;;;;5035254;28;20490;-70
2024/01/22 00:57:06;;;;;;;7.40;1.70;;;11.40;99.90;;;;;;5034870;28;20041;-71
2024/01/22 00:59:33;;;;;;;7.32;1.83;;;11.40;99.90;;;;;;5035302;28;20038;-71
2024/01/22 01:01:59;;;;;;;7.88;1.23;;;11.30;99.90;;;;;;5035238;28;20042;-62
2024/01/22 01:04:26;;;;;;;7.38;1.75;;;11.40;99.90;;;;;;5033740;28;20037;-62
2024/01/22 01:06:53;;;;;;;7.15;1.50;;;11.40;99.90;;;;;;5035131;28;20041;-62
2024/01/22 01:09:20;;;;;;;6.63;1.40;;;11.40;99.90;;;;;;5035072;28;20046;-62
2024/01/22 01:11:47;;;;;;;6.85;2.15;;;11.40;99.90;;;;;;5034737;28;20498;-71
2024/01/22 01:14:14;;;;;;;5.07;1.02;;;11.40;99.90;;;;;;5034224;28;20092;-67
2024/01/22 01:16:41;;;;;;;4.57;1.00;;;11.40;99.90;;;;;;5034509;28;20448;-66
2024/01/22 01:19:07;;;;;;;6.55;1.50;;;11.40;99.90;;;;;;5033162;28;20402;-67
2024/01/22 01:21:34;;;;;;;4.68;1.20;;;11.30;99.90;;;;;;5033397;28;20048;-67
2024/01/22 01:24:01;;;;;;;5.63;1.33;;;11.30;99.90;;;;;;5034328;28;20056;-66
2024/01/22 01:26:28;;;;;;;4.93;1.13;;;11.40;99.90;;;;;;5033292;28;20061;-66
2024/01/22 01:28:55;;;;;;;6.93;1.00;;;11.40;99.90;;;;;;5034681;28;20037;-67
2024/01/22 01:31:22;;;;;;;6.07;1.30;;;11.40;99.90;;;;;;5034743;28;20060;-67
2024/01/22 01:33:48;;;;;;;3.22;1.05;;;11.30;99.90;;;;;;5032691;28;20394;-66
2024/01/22 01:36:16;;;;;;;5.88;1.02;;;11.40;99.90;;;;;;5034420;28;20037;-67
2024/01/22 01:38:42;;;;;;;7.25;0.98;;;11.40;99.90;;;;;;5032888;28;20044;-66
2024/01/22 01:41:09;;;;;;;2.72;0.70;;;11.40;99.90;;;;;;5032781;28;20041;-67
2024/01/22 01:43:36;;;;;;;3.67;0.82;;;11.50;99.90;;;;;;5033973;28;20042;-67
2024/01/22 01:46:03;;;;;;;5.38;0.95;;;11.50;99.90;;;;;;5034078;28;20045;-67
2024/01/22 01:48:30;;;;;;;2.85;0.60;;;11.50;99.90;;;;;;5033289;28;20056;-66
2024/01/22 01:50:57;;;;;;;4.05;1.20;;;11.50;99.90;;;;;;5034444;28;20049;-66
2024/01/22 01:53:24;;;;;;;4.05;0.73;;;11.50;99.90;;;;;;5032617;28;20076;-66
2024/01/22 01:55:51;;;;;;;5.35;0.95;;;11.50;99.90;;;;;;5033986;28;20041;-66
2024/01/22 01:58:17;;;;;;;3.55;0.98;;;11.50;99.90;;;;;;5033974;28;20051;-66
2024/01/22 02:00:44;;;;;;;6.78;1.20;;;11.50;99.90;;;;;;5034066;28;20069;-66
2024/01/22 02:03:11;;;;;;;7.32;1.50;;;11.60;99.90;;;;;;5033582;28;20049;-66
2024/01/22 02:05:38;;;;;;;6.05;1.50;;;11.60;99.90;;;;;;5033756;28;20056;-66
2024/01/22 02:08:05;;;;;;;6.43;1.38;;;11.60;99.90;;;;;;5033641;28;20556;-71
2024/01/22 02:10:32;;;;;;;12.73;2.65;;;11.70;99.90;;;;;;5032623;28;20045;-62
2024/01/22 02:13:01;;;;;;;11.73;2.95;;;11.70;99.90;;;;;;5033091;28;20057;-61
2024/01/22 02:15:28;;;;;;;12.07;2.28;;;11.80;99.90;;;;;;5032530;28;20439;-61
2024/01/22 02:17:55;;;;;;;14.27;2.80;;;11.80;99.90;;;;;;5033899;28;20455;-61
2024/01/22 02:20:22;;;;;;;13.57;3.10;;;11.80;99.90;;;;;;5032524;28;20140;-61
2024/01/22 02:22:49;;;;;;;15.90;3.50;;;11.80;99.90;;;;;;5032753;28;20041;-72
2024/01/22 02:25:16;;;;;;;20.40;3.70;;;11.80;99.90;;;;;;5031873;28;20041;-72
2024/01/22 02:27:42;;;;;;;21.15;4.25;;;11.80;99.90;;;;;;5033449;28;20042;-70
2024/01/22 02:30:09;;;;;;;25.50;5.22;;;11.90;99.90;;;;;;5033343;28;20041;-66
2024/01/22 02:32:36;;;;;;;20.92;4.25;;;11.90;99.90;;;;;;5033414;28;20033;-66
2024/01/22 02:35:03;;;;;;;20.27;4.60;;;11.90;99.90;;;;;;5030962;28;20041;-61
2024/01/22 02:37:29;;;;;;;25.00;5.70;;;11.90;99.90;;;;;;5032925;28;20060;-60
2024/01/22 02:39:56;;;;;;;27.90;6.05;;;11.90;99.90;;;;;;5032059;28;20045;-61
2024/01/22 02:42:23;;;;;;;25.48;5.32;;;11.80;99.90;;;;;;5033282;28;20044;-60
2024/01/22 02:44:50;;;;;;;31.15;6.78;;;11.90;99.90;;;;;;5033134;28;20037;-60
2024/01/22 02:47:17;;;;;;;32.95;6.90;;;11.90;99.90;;;;;;5033411;28;20128;-60
2024/01/22 02:49:43;;;;;;;29.67;6.25;;;11.90;99.90;;;;;;5031882;28;20046;-60
2024/01/22 02:52:10;;;;;;;29.05;7.03;;;12.00;99.90;;;;;;5033102;28;20099;-60
2024/01/22 02:54:37;;;;;;;30.80;5.80;;;12.00;99.90;;;;;;5032836;28;20496;-66
2024/01/22 02:57:04;;;;;;;30.25;6.22;;;12.00;99.90;;;;;;5032932;28;20380;-66
2024/01/22 02:59:36;;;;;;;29.95;7.30;;;11.90;99.90;;;;;;5031987;28;20080;-66
2024/01/22 03:02:03;;;;;;;32.28;6.18;;;11.90;99.90;;;;;;5031752;28;20038;-66
2024/01/22 03:04:30;;;;;;;29.92;6.47;;;11.90;99.90;;;;;;5031400;28;20049;-66
2024/01/22 03:06:57;;;;;;;36.38;7.43;;;11.90;99.90;;;;;;5033186;28;20463;-66
2024/01/22 03:09:24;;;;;;;30.42;7.25;;;11.80;99.90;;;;;;5031757;28;20065;-66
2024/01/22 03:11:52;;;;;;;32.25;7.20;;;11.80;99.90;;;;;;5031843;28;20195;-66
2024/01/22 03:14:18;;;;;;;41.97;7.82;;;11.70;99.90;;;;;;5032589;28;20124;-66
2024/01/22 03:16:46;;;;;;;32.90;6.93;;;11.80;99.90;;;;;;5032882;28;20045;-66
2024/01/22 03:19:12;;;;;;;33.20;7.28;;;11.80;99.90;;;;;;5032967;28;20116;-65
2024/01/22 03:21:39;;;;;;;34.95;7.50;;;11.80;99.90;;;;;;5031613;28;20116;-66
2024/01/22 03:24:06;;;;;;;35.80;8.40;;;11.80;99.90;;;;;;5032683;28;20037;-66
2024/01/22 03:26:33;;;;;;;33.20;7.45;;;11.80;99.90;;;;;;5033164;28;20043;-61
2024/01/22 03:29:00;;;;;;;40.53;7.32;;;11.80;99.90;;;;;;5032626;28;20398;-61
2024/01/22 03:31:27;;;;;;;40.42;7.30;;;11.80;99.90;;;;;;5033384;28;20045;-61
2024/01/22 03:33:54;;;;;;;37.55;7.75;;;11.80;99.90;;;;;;5032737;28;20397;-60
2024/01/22 03:36:21;;;;;;;34.75;7.68;;;11.90;99.90;;;;;;5031486;28;20541;-66
2024/01/22 03:38:48;;;;;;;39.97;8.65;;;11.80;99.90;;;;;;5032790;28;20076;-66
2024/01/22 03:41:15;;;;;;;51.10;9.60;;;11.80;99.90;;;;;;5032472;28;20046;-61
2024/01/22 03:43:42;;;;;;;51.58;9.48;;;11.80;99.90;;;;;;5032422;28;20046;-61
2024/01/22 03:46:09;;;;;;;43.55;8.35;;;11.70;99.90;;;;;;5033792;28;20139;-60
2024/01/22 03:48:35;;;;;;;48.83;9.35;;;11.70;99.90;;;;;;5036403;28;20049;-61
2024/01/22 03:51:02;;;;;;;40.30;8.32;;;11.80;99.90;;;;;;5035197;28;20439;-60
2024/01/22 03:53:29;;;;;;;45.88;9.27;;;11.70;99.90;;;;;;5036450;28;20414;-61
2024/01/22 03:55:56;;;;;;;50.33;10.82;;;11.70;99.90;;;;;;5036656;28;20096;-61
2024/01/22 03:58:23;;;;;;;46.22;9.93;;;11.70;99.90;;;;;;5036079;28;20041;-61
2024/01/22 04:00:50;;;;;;;40.95;9.05;;;11.70;99.90;;;;;;5036449;28;20095;-60
2024/01/22 04:03:16;;;;;;;48.30;10.27;;;11.70;99.90;;;;;;5034725;28;20348;-61
2024/01/22 04:05:43;;;;;;;46.88;10.57;;;11.70;99.90;;;;;;5034644;28;20037;-61
2024/01/22 04:08:10;;;;;;;44.63;9.95;;;11.70;99.90;;;;;;5035947;28;20033;-60
2024/01/22 04:10:37;;;;;;;53.55;11.13;;;11.70;99.90;;;;;;5035954;28;20041;-61
2024/01/22 04:13:04;;;;;;;51.35;10.45;;;11.70;99.90;;;;;;5035373;28;20495;-60
2024/01/22 04:15:31;;;;;;;54.45;10.05;;;11.70;99.90;;;;;;5035745;28;20068;-60
2024/01/22 04:17:58;;;;;;;47.58;10.05;;;11.70;99.90;;;;;;5035817;28;20037;-60
2024/01/22 04:20:25;;;;;;;49.03;11.20;;;11.70;99.90;;;;;;5035522;28;20055;-60
2024/01/22 04:22:52;;;;;;;52.25;11.50;;;11.60;99.90;;;;;;5035861;28;20099;-59
2024/01/22 04:25:18;;;;;;;45.90;9.15;;;11.70;99.90;;;;;;5035538;28;20068;-61
2024/01/22 04:27:45;;;;;;;45.35;10.95;;;11.70;99.90;;;;;;5035573;28;20042;-60
2024/01/22 04:30:12;;;;;;;50.88;10.63;;;11.80;99.90;;;;;;5035431;28;20062;-60
2024/01/22 04:32:39;;;;;;;47.97;10.50;;;11.70;99.90;;;;;;5035741;28;20196;-60
2024/01/22 04:35:07;;;;;;;45.10;9.82;;;11.70;99.90;;;;;;5035455;28;20068;-60
2024/01/22 04:37:34;;;;;;;48.60;9.55;;;11.70;99.90;;;;;;5034116;28;20116;-61
2024/01/22 04:40:01;;;;;;;47.38;10.60;;;11.70;99.90;;;;;;5035345;28;20132;-60
2024/01/22 04:42:28;;;;;;;48.33;10.27;;;11.70;99.90;;;;;;5035442;28;20049;-61
2024/01/22 04:44:55;;;;;;;54.67;11.60;;;11.70;99.90;;;;;;5034160;28;20172;-61
2024/01/22 04:47:22;;;;;;;43.42;9.85;;;11.70;99.90;;;;;;5035241;28;20125;-60
2024/01/22 04:49:49;;;;;;;46.45;9.73;;;11.70;99.90;;;;;;5035096;28;20076;-59
2024/01/22 04:52:15;;;;;;;46.03;9.85;;;11.70;99.90;;;;;;5035213;28;20121;-60
2024/01/22 04:54:42;;;;;;;51.35;10.18;;;11.70;99.90;;;;;;5034601;28;20049;-60
2024/01/22 04:57:09;;;;;;;49.75;10.57;;;11.60;99.90;;;;;;5034737;28;20128;-62
2024/01/22 04:59:36;;;;;;;39.63;7.68;;;11.20;99.90;;;;;;5033905;28;20372;-62
2024/01/22 05:02:03;;;;;;;17.27;3.92;;;10.70;99.90;;;;;;5034546;28;20038;-62
2024/01/22 05:04:30;;;;;;;19.23;3.95;;;10.20;99.90;;;;;;5034432;28;20117;-64
2024/01/22 05:06:56;;;;;;;21.63;3.83;;;9.80;99.90;;;;;;5034518;28;20043;-64
2024/01/22 05:09:23;;;;;;;16.13;2.85;;;9.60;99.90;;;;;;5034499;28;20041;-62
2024/01/22 05:11:50;;;;;;;12.02;3.08;;;9.40;99.90;;;;;;5034892;28;20064;-63
2024/01/22 05:14:17;;;;;;;14.35;2.88;;;9.40;99.90;;;;;;5034342;28;20052;-63
2024/01/22 05:16:44;;;;;;;15.93;2.85;;;9.30;99.90;;;;;;5034433;28;20030;-62
2024/01/22 05:19:10;;;;;;;14.50;2.65;;;9.20;99.90;;;;;;5034270;28;20471;-61
2024/01/22 05:21:37;;;;;;;17.80;3.17;;;9.10;99.90;;;;;;5033465;28;20038;-61
2024/01/22 05:24:04;;;;;;;16.90;2.45;;;9.10;99.90;;;;;;5034221;28;20050;-63
2024/01/22 05:26:31;;;;;;;12.30;2.55;;;9.10;99.90;;;;;;5034487;28;20065;-61
2024/01/22 05:28:58;;;;;;;15.55;2.67;;;9.10;99.90;;;;;;5033409;28;20033;-61
2024/01/22 05:31:24;;;;;;;16.42;2.55;;;9.10;99.90;;;;;;5033560;28;20096;-62
2024/01/22 05:33:51;;;;;;;13.23;2.95;;;9.10;99.90;;;;;;5033964;28;20124;-61
2024/01/22 05:36:18;;;;;;;18.98;3.00;;;9.10;99.90;;;;;;5033172;28;20437;-66
2024/01/22 05:38:45;;;;;;;17.27;3.75;;;9.10;99.90;;;;;;5034556;28;20499;-65
2024/01/22 05:41:12;;;;;;;16.17;3.72;;;9.10;99.90;;;;;;5034284;28;20037;-66
2024/01/22 05:43:39;;;;;;;20.63;3.22;;;9.10;99.90;;;;;;5034368;28;20171;-60
2024/01/22 05:46:06;;;;;;;17.33;3.50;;;9.10;99.90;;;;;;5034168;28;20041;-60
2024/01/22 05:48:33;;;;;;;12.00;3.00;;;9.00;99.90;;;;;;5034247;28;20486;-61
2024/01/22 05:51:01;;;;;;;20.48;4.40;;;9.00;99.90;;;;;;5033811;28;20055;-60
2024/01/22 05:53:28;;;;;;;20.27;3.45;;;9.00;99.90;;;;;;5033059;28;20046;-61
2024/01/22 05:55:55;;;;;;;16.55;3.78;;;8.90;99.90;;;;;;5032460;28;20046;-61
2024/01/22 05:58:22;;;;;;;19.42;3.42;;;8.90;99.90;;;;;;5033630;28;20120;-61
2024/01/22 06:00:49;;;;;;;18.00;3.40;;;8.90;99.90;;;;;;5032750;28;20475;-60
2024/01/22 06:03:16;;;;;;;22.70;4.07;;;8.90;99.90;;;;;;5033455;28;20046;-60
2024/01/22 06:05:43;;;;;;;18.40;3.75;;;8.80;99.90;;;;;;5033680;28;20054;-61
2024/01/22 06:08:10;;;;;;;20.45;3.42;;;8.80;99.90;;;;;;5033902;28;20056;-61
2024/01/22 06:10:36;;;;;;;21.67;3.60;;;8.80;99.90;;;;;;5032757;28;20540;-65
2024/01/22 06:13:03;;;;;;;21.92;3.65;;;8.80;99.90;;;;;;5033719;28;20449;-66
2024/01/22 06:15:30;;;;;;;19.73;4.15;;;8.70;99.90;;;;;;5033879;28;20045;-66
2024/01/22 06:17:57;;;;;;;19.63;3.85;;;8.70;99.90;;;;;;5032453;28;20049;-66
2024/01/22 06:20:24;;;;;;;16.83;3.00;;;8.70;99.90;;;;;;5033938;28;20041;-68
2024/01/22 06:22:51;;;;;;;19.65;3.65;;;8.70;99.90;;;;;;5033788;28;20065;-66
2024/01/22 06:25:18;;;;;;;21.15;3.85;;;8.60;99.90;;;;;;5033526;28;20049;-65
2024/01/22 06:27:45;;;;;;;18.67;3.47;;;8.60;99.90;;;;;;5032253;28;20045;-65
2024/01/22 06:30:12;;;;;;;24.90;4.32;;;8.60;99.90;;;;;;5033638;28;20534;-66
2024/01/22 06:32:40;;;;;;;19.88;3.50;;;8.60;99.90;;;;;;5031729;28;20038;-62
2024/01/22 06:35:07;;;;;;;16.77;3.63;;;8.60;99.90;;;;;;5032914;28;20045;-62
2024/01/22 06:37:34;;;;;;;16.10;3.38;;;8.60;99.90;;;;;;5033308;28;20041;-61
2024/01/22 06:40:01;;;;;;;25.25;4.07;;;8.60;99.90;;;;;;5033401;28;20049;-62
2024/01/22 06:42:29;;;;;;;21.23;3.70;;;8.60;99.90;;;;;;5033399;28;20088;-62
2024/01/22 06:45:04;;;;;;;27.98;4.28;;;8.60;99.90;;;;;;5032423;28;20038;-62
2024/01/22 06:47:33;;;;;;;20.02;3.53;;;8.60;99.90;;;;;;5032977;28;20388;-62
2024/01/22 06:50:01;;;;;;;20.75;3.92;;;8.60;99.90;;;;;;5032918;28;20037;-62
2024/01/22 06:52:29;;;;;;;17.60;4.38;;;8.60;99.90;;;;;;5032186;28;20475;-62
2024/01/22 06:54:56;;;;;;;20.95;3.72;;;8.60;99.90;;;;;;5032791;28;20049;-62
2024/01/22 06:57:23;;;;;;;20.45;4.07;;;8.50;99.90;;;;;;5032975;28;20046;-62
2024/01/22 06:59:50;;;;;;;17.13;3.75;;;8.50;99.90;;;;;;5033176;28;20072;-61
2024/01/22 07:02:20;;;;;;;20.23;4.65;;;8.50;99.90;;;;;;5033217;28;20048;-62
2024/01/22 07:04:46;;;;;;;16.33;3.92;;;8.50;99.90;;;;;;5031783;28;20057;-62
2024/01/22 07:07:13;;;;;;;19.05;3.63;;;8.50;99.90;;;;;;5032997;28;20050;-62
2024/01/22 07:09:40;;;;;;;25.88;6.05;;;8.50;99.90;;;;;;5033030;28;20041;-62
2024/01/22 07:12:07;;;;;;;30.05;5.15;;;8.60;99.90;;;;;;5033259;28;20053;-62
2024/01/22 07:14:34;;;;;;;27.52;4.30;;;8.60;99.90;;;;;;5032507;28;20491;-62
2024/01/22 07:17:03;;;;;;;29.77;4.38;;;8.60;99.90;;;;;;5032672;28;20048;-62
2024/01/22 07:19:30;;;;;;;26.38;4.30;;;8.60;99.90;;;;;;5032921;28;20034;-62
2024/01/22 07:21:56;;;;;;;24.02;5.00;;;8.60;99.90;;;;;;5035524;28;20041;-62
2024/01/22 07:24:23;;;;;;;26.35;5.00;;;8.70;99.90;;;;;;5036611;28;20390;-62
2024/01/22 07:26:50;;;;;;;32.47;4.97;;;8.70;99.90;;;;;;5035446;28;20037;-60
2024/01/22 07:29:17;;;;;;;24.55;4.95;;;8.70;99.90;;;;;;5018889;28;20076;-60
2024/01/22 07:31:44;;;;;;;23.92;4.80;;;8.70;99.90;;;;;;5036813;28;20041;-61
2024/01/22 07:34:10;;;;;;;25.42;4.50;;;8.80;99.90;;;;;;5035044;28;20042;-60
2024/01/22 07:36:37;;;;;;;24.58;4.78;;;8.80;99.90;;;;;;5036491;28;20036;-61
2024/01/22 07:39:04;;;;;;;25.58;4.57;;;8.80;99.90;;;;;;5036311;28;20463;-61
2024/01/22 07:41:31;;;;;;;26.02;4.95;;;8.80;99.90;;;;;;5034940;28;20040;-62
2024/01/22 07:43:58;;;;;;;24.02;5.15;;;8.80;99.90;;;;;;5035336;28;20419;-61
2024/01/22 07:46:26;;;;;;;23.90;4.45;;;8.80;99.90;;;;;;5036452;28;20052;-61
2024/01/22 07:48:53;;;;;;;24.02;4.68;;;8.80;99.90;;;;;;5036565;28;20064;-61
2024/01/22 07:51:20;;;;;;;32.72;5.70;;;8.80;99.90;;;;;;5034675;28;20052;-61
2024/01/22 07:53:47;;;;;;;27.98;5.10;;;8.70;99.90;;;;;;5036039;28;20052;-61
2024/01/22 07:56:14;;;;;;;25.75;5.28;;;8.70;99.90;;;;;;5036341;28;20045;-61
2024/01/22 07:58:41;;;;;;;32.83;5.20;;;8.70;99.90;;;;;;5036206;28;20041;-69
2024/01/22 08:01:08;;;;;;;18.48;4.95;;;8.60;99.90;;;;;;5036322;28;20060;-69
2024/01/22 08:03:35;;;;;;;25.63;5.70;;;8.60;99.90;;;;;;5034842;28;20045;-69
2024/01/22 08:06:02;;;;;;;20.77;4.80;;;8.60;99.90;;;;;;5036045;28;20041;-70
2024/01/22 08:08:29;;;;;;;27.40;4.90;;;8.50;99.90;;;;;;5036300;28;20458;-65
2024/01/22 08:10:56;;;;;;;27.45;5.10;;;8.50;99.90;;;;;;5036135;28;20085;-69
2024/01/22 08:13:22;;;;;;;23.02;4.97;;;8.50;99.90;;;;;;5035572;28;20445;-69
2024/01/22 08:15:49;;;;;;;34.40;5.40;;;8.50;99.90;;;;;;5035734;28;20506;-69
2024/01/22 08:18:16;;;;;;;28.95;5.10;;;8.60;99.90;;;;;;5035717;28;20049;-59
2024/01/22 08:20:43;;;;;;;27.23;5.43;;;8.60;99.90;;;;;;5035621;28;20051;-60
2024/01/22 08:23:10;;;;;;;28.75;5.30;;;8.60;99.90;;;;;;5035666;28;20048;-59
2024/01/22 08:25:37;;;;;;;23.73;4.90;;;8.60;99.90;;;;;;5034017;28;20041;-59
2024/01/22 08:28:04;;;;;;;24.92;5.15;;;8.60;99.90;;;;;;5035799;28;20064;-59
2024/01/22 08:30:31;;;;;;;29.58;5.32;;;8.60;99.90;;;;;;5035506;28;20056;-60
2024/01/22 08:32:58;;;;;;;20.02;4.82;;;8.60;99.90;;;;;;5034572;28;20049;-60
2024/01/22 08:35:26;;;;;;;31.70;5.50;;;8.70;99.90;;;;;;5033954;28;20375;-60
2024/01/22 08:37:53;;;;;;;34.60;5.57;;;8.70;99.90;;;;;;5035682;28;20041;-60
2024/01/22 08:40:23;;;;;;;28.33;5.53;;;8.70;99.90;;;;;;5035315;28;20046;-60
2024/01/22 08:42:50;;;;;;;27.58;4.60;;;8.60;99.90;;;;;;5035140;28;20479;-60
2024/01/22 08:45:17;;;;;;;31.35;5.63;;;8.70;99.90;;;;;;5035274;28;20053;-60
2024/01/22 08:47:45;;;;;;;20.42;4.47;;;8.70;99.90;;;;;;5034018;28;20042;-60
2024/01/22 08:50:17;;;;;;;30.38;4.80;;;8.60;99.90;;;;;;5033623;28;20052;-60
2024/01/22 08:52:44;;;;;;;24.55;4.72;;;8.60;99.90;;;;;;5017367;28;20045;-60
2024/01/22 08:55:11;;;;;;;26.08;4.47;;;8.70;99.90;;;;;;5033849;28;20033;-60
2024/01/22 08:57:39;;;;;;;29.35;4.50;;;8.70;99.90;;;;;;5035289;28;20033;-66
2024/01/22 09:00:10;;;;;;;23.15;4.45;;;8.70;99.90;;;;;;5034818;28;20038;-66
2024/01/22 09:02:39;;;;;;;25.98;4.55;;;8.80;99.90;;;;;;5034980;28;20046;-66
2024/01/22 09:05:06;;;;;;;26.35;4.72;;;8.80;99.90;;;;;;5034640;28;20549;-66
2024/01/22 09:07:32;;;;;;;23.40;4.72;;;8.80;99.90;;;;;;5035073;28;20063;-66
2024/01/22 09:09:59;;;;;;;29.50;4.68;;;8.80;99.90;;;;;;5035012;28;20049;-66
2024/01/22 09:12:26;;;;;;;24.02;5.30;;;8.80;99.90;;;;;;5034943;28;20099;-61
2024/01/22 09:14:53;;;;;;;26.70;5.45;;;8.80;99.90;;;;;;5032843;28;20049;-61
2024/01/22 09:17:20;;;;;;;26.65;5.05;;;8.80;99.90;;;;;;5021866;28;20037;-61
2024/01/22 09:19:47;;;;;;;29.02;5.40;;;8.80;99.90;;;;;;5049182;28;20414;-61
2024/01/22 09:22:14;;;;;;;24.90;4.63;;;8.90;99.90;;;;;;5030876;28;20509;-61
2024/01/22 09:24:40;;;;;;;27.42;4.85;;;8.90;99.90;;;;;;5037356;28;20090;-60
2024/01/22 09:27:07;;;;;;;22.98;4.03;;;8.80;99.90;;;;;;5053866;28;20045;-61
2024/01/22 09:29:34;;;;;;;28.02;5.40;;;8.80;99.90;;;;;;5053305;28;20047;-61
2024/01/22 09:32:01;;;;;;;26.30;4.53;;;8.80;99.90;;;;;;5053492;28;20033;-61
2024/01/22 09:34:28;;;;;;;24.30;4.68;;;8.90;99.90;;;;;;5053423;28;20099;-61
2024/01/22 09:36:55;;;;;;;25.17;4.90;;;8.90;99.90;;;;;;5053563;28;20040;-61
2024/01/22 09:39:22;;;;;;;23.02;5.47;;;8.90;99.90;;;;;;5053474;28;20147;-61
2024/01/22 09:41:49;;;;;;;22.45;4.60;;;8.90;99.90;;;;;;5013941;28;20042;-61
2024/01/22 09:44:16;;;;;;;36.00;5.75;;;8.90;99.90;;;;;;5013703;28;20092;-61
2024/01/22 09:46:43;;;;;;;25.30;5.70;;;8.90;99.90;;;;;;5032091;28;20042;-61
2024/01/22 09:49:10;;;;;;;22.30;4.65;;;8.90;99.90;;;;;;5033449;28;20107;-61
2024/01/22 09:51:37;;;;;;;21.67;4.47;;;9.00;99.90;;;;;;5033381;28;20049;-61
2024/01/22 09:54:03;;;;;;;25.15;4.85;;;9.00;99.90;;;;;;5032289;28;20068;-60
2024/01/22 09:56:30;;;;;;;25.23;5.60;;;9.00;99.90;;;;;;5033321;28;20140;-60
2024/01/22 09:58:57;;;;;;;23.33;4.78;;;9.00;99.90;;;;;;5033086;28;20473;-61
2024/01/22 10:01:24;;;;;;;26.77;4.70;;;9.10;99.90;;;;;;5033193;28;20042;-59
2024/01/22 10:03:51;;;;;;;23.90;4.22;;;9.10;99.90;;;;;;5033191;28;20096;-61
2024/01/22 10:06:18;;;;;;;25.60;4.90;;;9.10;99.90;;;;;;5033255;28;20502;-59
2024/01/22 10:08:45;;;;;;;23.75;4.43;;;9.10;99.90;;;;;;5033575;28;20042;-60
2024/01/22 10:11:13;;;;;;;24.17;4.20;;;9.10;99.90;;;;;;5032879;28;20098;-60
2024/01/22 10:13:40;;;;;;;25.30;4.35;;;9.20;99.90;;;;;;5033001;28;20049;-60
2024/01/22 10:16:07;;;;;;;25.10;4.90;;;9.20;99.90;;;;;;5033243;28;20471;-59
2024/01/22 10:18:35;;;;;;;24.98;4.20;;;9.20;99.90;;;;;;5033081;28;20041;-58
2024/01/22 10:21:02;;;;;;;22.40;4.10;;;9.30;99.90;;;;;;5032882;28;20457;-61
2024/01/22 10:23:29;;;;;;;23.88;4.20;;;9.40;99.90;;;;;;5032900;28;20728;-62
2024/01/22 10:25:56;;;;;;;32.90;4.90;;;9.50;99.90;;;;;;5033232;28;20127;-61
2024/01/22 10:28:23;;;;;;;26.08;5.00;;;9.50;99.90;;;;;;5032885;28;20111;-61
2024/01/22 10:30:50;;;;;;;30.88;5.00;;;9.60;99.90;;;;;;5032686;28;20053;-61
2024/01/22 10:33:17;;;;;;;26.27;4.93;;;9.60;99.90;;;;;;5032774;28;20056;-61
2024/01/22 10:35:44;;;;;;;22.88;4.38;;;9.70;99.90;;;;;;5032688;28;20049;-61
2024/01/22 10:38:12;;;;;;;26.10;5.03;;;9.80;99.90;;;;;;5032727;28;20510;-59
2024/01/22 10:40:39;;;;;;;24.27;4.57;;;10.00;99.90;;;;;;5032660;28;20510;-60
2024/01/22 10:43:06;;;;;;;24.13;4.55;;;10.00;99.90;;;;;;5032616;28;20049;-60
2024/01/22 10:45:33;;;;;;;19.55;4.78;;;10.00;99.90;;;;;;5032851;28;20041;-59
2024/01/22 10:47:59;;;;;;;15.38;3.30;;;10.00;99.90;;;;;;5032716;28;20045;-60
2024/01/22 10:50:38;;;;;;;22.25;3.80;;;10.00;99.90;;;;;;5032464;28;20120;-59
2024/01/22 10:53:06;;;;;;;17.02;3.67;;;9.90;99.90;;;;;;5032677;28;20545;-60
2024/01/22 10:55:33;;;;;;;15.25;3.45;;;9.90;99.90;;;;;;5032597;28;20038;-60
2024/01/22 10:58:00;;;;;;;19.00;3.97;;;10.00;99.90;;;;;;5036768;28;20041;-61
2024/01/22 11:00:27;;;;;;;20.70;3.90;;;10.00;99.90;;;;;;5036694;28;20105;-60
2024/01/22 11:02:56;;;;;;;18.45;3.78;;;10.00;99.90;;;;;;5036425;28;20046;-60
2024/01/22 11:05:23;;;;;;;19.80;4.40;;;10.00;99.90;;;;;;5036601;28;20076;-61
2024/01/22 11:07:50;;;;;;;22.75;3.95;;;10.00;99.90;;;;;;5037369;28;20124;-65
2024/01/22 11:10:17;;;;;;;18.83;3.80;;;9.90;99.90;;;;;;5037101;28;20052;-65
2024/01/22 11:12:44;;;;;;;18.10;4.28;;;9.90;99.90;;;;;;5036877;28;20042;-65
2024/01/22 11:15:11;;;;;;;23.02;4.40;;;9.80;99.90;;;;;;5037093;28;20456;-66
2024/01/22 11:17:38;;;;;;;24.25;4.80;;;9.80;99.90;;;;;;5037009;28;20193;-64
2024/01/22 11:20:05;;;;;;;19.35;4.57;;;9.80;99.90;;;;;;5036989;28;20037;-66
2024/01/22 11:22:31;;;;;;;18.55;4.18;;;9.90;99.90;;;;;;5036547;28;20049;-63
2024/01/22 11:24:58;;;;;;;17.45;3.75;;;9.90;99.90;;;;;;5036630;28;20080;-67
2024/01/22 11:27:25;;;;;;;22.15;4.18;;;9.80;99.90;;;;;;5036982;28;20049;-65
2024/01/22 11:29:52;;;;;;;19.25;3.97;;;9.90;99.90;;;;;;5036723;28;20049;-63
2024/01/22 11:32:19;;;;;;;16.38;3.78;;;9.90;99.90;;;;;;5037282;28;20037;-66
2024/01/22 11:34:46;;;;;;;15.45;3.33;;;9.90;99.90;;;;;;5035548;28;20049;-61
2024/01/22 11:37:15;;;;;;;13.55;2.85;;;9.90;99.90;;;;;;5034680;28;20538;-60
2024/01/22 11:39:42;;;;;;;17.33;3.50;;;10.00;99.90;;;;;;5036237;28;20109;-59
2024/01/22 11:42:10;;;;;;;20.90;4.53;;;10.10;99.90;;;;;;5034764;28;20042;-59
2024/01/22 11:44:37;;;;;;;18.85;3.53;;;10.20;99.90;;;;;;5036333;28;20052;-58
2024/01/22 11:47:04;;;;;;;18.05;3.78;;;10.20;99.90;;;;;;5035383;28;20053;-58
2024/01/22 11:49:32;;;;;;;14.32;3.97;;;10.20;99.90;;;;;;5035099;28;20124;-59
2024/01/22 11:51:58;;;;;;;15.95;3.15;;;10.20;99.90;;;;;;5035230;28;21427;-58
2024/01/22 11:54:25;;;;;;;17.75;3.53;;;10.20;99.90;;;;;;5034779;28;20049;-58
2024/01/22 11:56:53;;;;;;;19.85;3.95;;;10.30;99.90;;;;;;5036146;28;20044;-68
2024/01/22 11:59:21;;;;;;;25.05;4.55;;;10.30;99.90;;;;;;5035521;28;20077;-67
2024/01/22 12:01:48;;;;;;;16.05;3.40;;;10.40;99.90;;;;;;5030043;28;20038;-67
2024/01/22 12:04:15;;;;;;;17.75;4.03;;;10.40;99.90;;;;;;5022119;28;20034;-67
2024/01/22 12:06:44;;;;;;;25.77;4.47;;;10.40;99.90;;;;;;5016368;28;20054;-67
2024/01/22 12:09:11;;;;;;;21.27;3.65;;;10.40;99.90;;;;;;5027832;28;20044;-67
2024/01/22 12:11:38;;;;;;;19.88;4.15;;;10.50;99.90;;;;;;5036069;28;20065;-67
2024/01/22 12:14:05;;;;;;;16.73;3.60;;;10.60;99.90;;;;;;5034153;28;20133;-67
2024/01/22 12:16:33;;;;;;;19.73;3.22;;;10.60;99.90;;;;;;5034765;28;20069;-68
2024/01/22 12:19:00;;;;;;;18.65;4.00;;;10.60;99.90;;;;;;5035106;28;20790;-68
2024/01/22 12:21:27;;;;;;;17.83;4.18;;;10.60;99.90;;;;;;5036153;28;20490;-67
2024/01/22 12:23:54;;;;;;;17.35;4.18;;;10.60;99.90;;;;;;5033802;28;20040;-67
2024/01/22 12:26:21;;;;;;;20.60;4.45;;;10.50;99.90;;;;;;5035300;28;20045;-67
2024/01/22 12:28:48;;;;;;;18.60;4.15;;;10.50;99.90;;;;;;5034824;28;20099;-67
2024/01/22 12:31:15;;;;;;;24.17;4.25;;;10.50;99.90;;;;;;5035850;28;20041;-67
2024/01/22 12:33:41;;;;;;;20.00;3.55;;;10.60;99.90;;;;;;5034442;28;20054;-68
2024/01/22 12:36:13;;;;;;;17.75;4.10;;;10.60;99.90;;;;;;5032998;28;20095;-67
2024/01/22 12:38:40;;;;;;;21.13;3.97;;;10.70;99.90;;;;;;5035335;28;20095;-67
2024/01/22 12:41:10;;;;;;;18.15;3.20;;;10.70;99.90;;;;;;5033691;28;20467;-60